sensor_id;sensor_type;location;lat;lon;timestamp;P1;durP1;ratioP1;P2;durP2;ratioP2
34212;SDS011;20477;51.390;8.102;2023-07-29T00:00:21;5.03;;;3.45;;
34212;SDS011;20477;51.390;8.102;2023-07-29T00:02:49;6.07;;;3.15;;
34212;SDS011;20477;51.390;8.102;2023-07-29T00:05:19;3.28;;;2.97;;
34212;SDS011;20477;51.390;8.102;2023-07-29T00:07:47;4.45;;;3.15;;
34212;SDS011;20477;51.390;8.102;2023-07-29T00:10:15;3.42;;;2.92;;
34212;SDS011;20477;51.390;8.102;2023-07-29T00:12:43;5.55;;;3.00;;
34212;SDS011;20477;51.390;8.102;2023-07-29T00:15:12;3.92;;;3.00;;
34212;SDS011;20477;51.390;8.102;2023-07-29T00:17:40;5.35;;;3.17;;
34212;SDS011;20477;51.390;8.102;2023-07-29T00:20:08;4.13;;;3.40;;
34212;SDS011;20477;51.390;8.102;2023-07-29T00:22:38;5.15;;;2.97;;
34212;SDS011;20477;51.390;8.102;2023-07-29T00:25:06;5.25;;;2.78;;
34212;SDS011;20477;51.390;8.102;2023-07-29T00:27:35;4.15;;;3.15;;
34212;SDS011;20477;51.390;8.102;2023-07-29T00:30:03;6.18;;;3.38;;
34212;SDS011;20477;51.390;8.102;2023-07-29T00:32:32;7.25;;;3.50;;
34212;SDS011;20477;51.390;8.102;2023-07-29T00:35:00;3.85;;;3.45;;
34212;SDS011;20477;51.390;8.102;2023-07-29T00:37:29;3.70;;;3.30;;
34212;SDS011;20477;51.390;8.102;2023-07-29T00:39:59;9.32;;;3.50;;
34212;SDS011;20477;51.390;8.102;2023-07-29T00:42:27;3.33;;;3.03;;
34212;SDS011;20477;51.390;8.102;2023-07-29T00:44:55;3.58;;;3.28;;
34212;SDS011;20477;51.390;8.102;2023-07-29T00:47:23;2.88;;;2.63;;
34212;SDS011;20477;51.390;8.102;2023-07-29T00:49:53;3.33;;;3.03;;
34212;SDS011;20477;51.390;8.102;2023-07-29T00:52:21;13.93;;;3.67;;
34212;SDS011;20477;51.390;8.102;2023-07-29T00:54:49;6.72;;;3.55;;
34212;SDS011;20477;51.390;8.102;2023-07-29T00:57:19;7.35;;;3.35;;
34212;SDS011;20477;51.390;8.102;2023-07-29T00:59:47;3.88;;;2.90;;
34212;SDS011;20477;51.390;8.102;2023-07-29T01:02:15;4.13;;;2.90;;
34212;SDS011;20477;51.390;8.102;2023-07-29T01:04:43;5.45;;;2.42;;
34212;SDS011;20477;51.390;8.102;2023-07-29T01:07:13;3.83;;;2.72;;
34212;SDS011;20477;51.390;8.102;2023-07-29T01:09:48;8.00;;;2.72;;
34212;SDS011;20477;51.390;8.102;2023-07-29T01:14:51;4.40;;;2.85;;
34212;SDS011;20477;51.390;8.102;2023-07-29T01:17:23;9.60;;;2.75;;
34212;SDS011;20477;51.390;8.102;2023-07-29T01:19:59;8.55;;;2.88;;
34212;SDS011;20477;51.390;8.102;2023-07-29T01:22:30;4.63;;;2.65;;
34212;SDS011;20477;51.390;8.102;2023-07-29T01:25:00;5.88;;;3.08;;
34212;SDS011;20477;51.390;8.102;2023-07-29T01:27:29;4.57;;;2.60;;
34212;SDS011;20477;51.390;8.102;2023-07-29T01:29:58;3.03;;;2.72;;
34212;SDS011;20477;51.390;8.102;2023-07-29T01:32:28;2.90;;;2.70;;
34212;SDS011;20477;51.390;8.102;2023-07-29T01:35:00;4.45;;;2.70;;
34212;SDS011;20477;51.390;8.102;2023-07-29T01:37:32;12.57;;;3.28;;
34212;SDS011;20477;51.390;8.102;2023-07-29T01:40:02;8.40;;;3.00;;
34212;SDS011;20477;51.390;8.102;2023-07-29T01:42:32;2.88;;;2.58;;
34212;SDS011;20477;51.390;8.102;2023-07-29T01:45:00;3.17;;;2.47;;
34212;SDS011;20477;51.390;8.102;2023-07-29T01:47:28;3.83;;;2.60;;
34212;SDS011;20477;51.390;8.102;2023-07-29T01:49:56;6.00;;;2.72;;
34212;SDS011;20477;51.390;8.102;2023-07-29T01:52:24;5.82;;;2.80;;
34212;SDS011;20477;51.390;8.102;2023-07-29T01:54:52;5.22;;;2.72;;
34212;SDS011;20477;51.390;8.102;2023-07-29T01:57:22;2.92;;;2.67;;
34212;SDS011;20477;51.390;8.102;2023-07-29T01:59:50;3.20;;;2.70;;
34212;SDS011;20477;51.390;8.102;2023-07-29T02:02:18;4.63;;;2.60;;
34212;SDS011;20477;51.390;8.102;2023-07-29T02:04:46;6.93;;;2.40;;
34212;SDS011;20477;51.390;8.102;2023-07-29T02:07:18;3.58;;;2.45;;
34212;SDS011;20477;51.390;8.102;2023-07-29T02:09:46;4.13;;;2.47;;
34212;SDS011;20477;51.390;8.102;2023-07-29T02:12:15;6.47;;;2.40;;
34212;SDS011;20477;51.390;8.102;2023-07-29T02:14:44;6.60;;;2.85;;
34212;SDS011;20477;51.390;8.102;2023-07-29T02:17:12;3.15;;;2.50;;
34212;SDS011;20477;51.390;8.102;2023-07-29T02:19:40;3.53;;;3.15;;
34212;SDS011;20477;51.390;8.102;2023-07-29T02:22:09;3.35;;;2.53;;
34212;SDS011;20477;51.390;8.102;2023-07-29T02:24:38;4.60;;;2.70;;
34212;SDS011;20477;51.390;8.102;2023-07-29T02:27:06;3.60;;;2.92;;
34212;SDS011;20477;51.390;8.102;2023-07-29T02:29:34;3.88;;;3.28;;
34212;SDS011;20477;51.390;8.102;2023-07-29T02:32:04;3.40;;;2.40;;
34212;SDS011;20477;51.390;8.102;2023-07-29T02:34:32;6.13;;;2.83;;
34212;SDS011;20477;51.390;8.102;2023-07-29T02:37:00;5.50;;;2.85;;
34212;SDS011;20477;51.390;8.102;2023-07-29T02:39:29;5.00;;;2.80;;
34212;SDS011;20477;51.390;8.102;2023-07-29T02:41:57;4.63;;;2.58;;
34212;SDS011;20477;51.390;8.102;2023-07-29T02:44:25;3.80;;;2.85;;
34212;SDS011;20477;51.390;8.102;2023-07-29T02:46:53;3.97;;;2.72;;
34212;SDS011;20477;51.390;8.102;2023-07-29T02:49:23;9.02;;;2.75;;
34212;SDS011;20477;51.390;8.102;2023-07-29T02:51:51;8.75;;;3.40;;
34212;SDS011;20477;51.390;8.102;2023-07-29T02:54:20;5.38;;;3.67;;
34212;SDS011;20477;51.390;8.102;2023-07-29T02:56:49;8.45;;;2.95;;
34212;SDS011;20477;51.390;8.102;2023-07-29T02:59:17;8.57;;;3.17;;
34212;SDS011;20477;51.390;8.102;2023-07-29T03:01:46;8.82;;;3.25;;
34212;SDS011;20477;51.390;8.102;2023-07-29T03:04:14;5.72;;;2.80;;
34212;SDS011;20477;51.390;8.102;2023-07-29T03:06:44;6.47;;;2.95;;
34212;SDS011;20477;51.390;8.102;2023-07-29T03:09:14;5.53;;;2.72;;
34212;SDS011;20477;51.390;8.102;2023-07-29T03:11:42;5.85;;;3.60;;
34212;SDS011;20477;51.390;8.102;2023-07-29T03:14:10;7.32;;;3.05;;
34212;SDS011;20477;51.390;8.102;2023-07-29T03:16:39;4.93;;;2.75;;
34212;SDS011;20477;51.390;8.102;2023-07-29T03:19:07;4.47;;;2.90;;
34212;SDS011;20477;51.390;8.102;2023-07-29T03:21:35;5.97;;;2.90;;
34212;SDS011;20477;51.390;8.102;2023-07-29T03:24:05;2.95;;;2.25;;
34212;SDS011;20477;51.390;8.102;2023-07-29T03:26:33;2.90;;;1.75;;
34212;SDS011;20477;51.390;8.102;2023-07-29T03:29:02;4.72;;;2.00;;
34212;SDS011;20477;51.390;8.102;2023-07-29T03:31:30;2.85;;;2.50;;
34212;SDS011;20477;51.390;8.102;2023-07-29T03:33:58;3.55;;;2.38;;
34212;SDS011;20477;51.390;8.102;2023-07-29T03:36:26;2.97;;;1.95;;
34212;SDS011;20477;51.390;8.102;2023-07-29T03:38:54;2.47;;;2.03;;
34212;SDS011;20477;51.390;8.102;2023-07-29T03:41:24;4.03;;;1.73;;
34212;SDS011;20477;51.390;8.102;2023-07-29T03:43:52;3.50;;;2.00;;
34212;SDS011;20477;51.390;8.102;2023-07-29T03:46:20;4.85;;;1.63;;
34212;SDS011;20477;51.390;8.102;2023-07-29T03:48:48;5.97;;;2.13;;
34212;SDS011;20477;51.390;8.102;2023-07-29T03:51:16;2.28;;;2.08;;
34212;SDS011;20477;51.390;8.102;2023-07-29T03:53:45;3.88;;;2.10;;
34212;SDS011;20477;51.390;8.102;2023-07-29T03:56:13;4.15;;;2.20;;
34212;SDS011;20477;51.390;8.102;2023-07-29T03:58:43;4.47;;;1.70;;
34212;SDS011;20477;51.390;8.102;2023-07-29T04:01:13;3.03;;;1.60;;
34212;SDS011;20477;51.390;8.102;2023-07-29T04:03:41;3.08;;;1.70;;
34212;SDS011;20477;51.390;8.102;2023-07-29T04:06:09;2.88;;;1.80;;
34212;SDS011;20477;51.390;8.102;2023-07-29T04:08:37;2.80;;;1.45;;
34212;SDS011;20477;51.390;8.102;2023-07-29T04:11:06;4.13;;;1.88;;
34212;SDS011;20477;51.390;8.102;2023-07-29T04:13:34;3.35;;;1.98;;
34212;SDS011;20477;51.390;8.102;2023-07-29T04:16:05;3.72;;;1.50;;
34212;SDS011;20477;51.390;8.102;2023-07-29T04:18:33;2.17;;;1.80;;
34212;SDS011;20477;51.390;8.102;2023-07-29T04:21:01;2.15;;;1.95;;
34212;SDS011;20477;51.390;8.102;2023-07-29T04:23:30;4.28;;;2.25;;
34212;SDS011;20477;51.390;8.102;2023-07-29T04:25:58;2.88;;;2.08;;
34212;SDS011;20477;51.390;8.102;2023-07-29T04:28:26;2.83;;;2.47;;
34212;SDS011;20477;51.390;8.102;2023-07-29T04:30:54;5.22;;;2.45;;
34212;SDS011;20477;51.390;8.102;2023-07-29T04:33:24;6.60;;;2.60;;
34212;SDS011;20477;51.390;8.102;2023-07-29T04:35:52;2.78;;;2.28;;
34212;SDS011;20477;51.390;8.102;2023-07-29T04:38:20;2.47;;;2.22;;
34212;SDS011;20477;51.390;8.102;2023-07-29T04:40:48;6.55;;;2.63;;
34212;SDS011;20477;51.390;8.102;2023-07-29T04:43:16;5.13;;;2.10;;
34212;SDS011;20477;51.390;8.102;2023-07-29T04:45:44;3.05;;;2.15;;
34212;SDS011;20477;51.390;8.102;2023-07-29T04:48:12;6.68;;;1.95;;
34212;SDS011;20477;51.390;8.102;2023-07-29T04:50:42;5.05;;;2.20;;
34212;SDS011;20477;51.390;8.102;2023-07-29T04:53:10;3.65;;;1.75;;
34212;SDS011;20477;51.390;8.102;2023-07-29T04:55:38;3.75;;;1.60;;
34212;SDS011;20477;51.390;8.102;2023-07-29T04:58:08;1.65;;;1.50;;
34212;SDS011;20477;51.390;8.102;2023-07-29T05:00:37;3.97;;;1.70;;
34212;SDS011;20477;51.390;8.102;2023-07-29T05:03:05;1.70;;;1.60;;
34212;SDS011;20477;51.390;8.102;2023-07-29T05:05:33;2.42;;;1.65;;
34212;SDS011;20477;51.390;8.102;2023-07-29T05:08:03;4.05;;;1.15;;
34212;SDS011;20477;51.390;8.102;2023-07-29T05:10:31;1.70;;;1.40;;
34212;SDS011;20477;51.390;8.102;2023-07-29T05:12:59;2.08;;;1.35;;
34212;SDS011;20477;51.390;8.102;2023-07-29T05:15:27;1.60;;;1.27;;
34212;SDS011;20477;51.390;8.102;2023-07-29T05:17:56;2.88;;;1.55;;
34212;SDS011;20477;51.390;8.102;2023-07-29T05:20:24;1.65;;;1.20;;
34212;SDS011;20477;51.390;8.102;2023-07-29T05:22:53;5.18;;;1.85;;
34212;SDS011;20477;51.390;8.102;2023-07-29T05:25:22;2.45;;;1.73;;
34212;SDS011;20477;51.390;8.102;2023-07-29T05:27:50;1.70;;;1.60;;
34212;SDS011;20477;51.390;8.102;2023-07-29T05:30:18;1.75;;;1.42;;
34212;SDS011;20477;51.390;8.102;2023-07-29T05:32:46;1.60;;;1.35;;
34212;SDS011;20477;51.390;8.102;2023-07-29T05:35:15;2.17;;;1.52;;
34212;SDS011;20477;51.390;8.102;2023-07-29T05:37:43;2.00;;;1.55;;
34212;SDS011;20477;51.390;8.102;2023-07-29T05:40:11;3.28;;;1.23;;
34212;SDS011;20477;51.390;8.102;2023-07-29T05:42:40;2.10;;;1.58;;
34212;SDS011;20477;51.390;8.102;2023-07-29T05:45:09;1.58;;;1.48;;
34212;SDS011;20477;51.390;8.102;2023-07-29T05:47:37;1.50;;;1.40;;
34212;SDS011;20477;51.390;8.102;2023-07-29T05:50:06;1.63;;;1.50;;
34212;SDS011;20477;51.390;8.102;2023-07-29T05:52:34;4.93;;;1.98;;
34212;SDS011;20477;51.390;8.102;2023-07-29T05:55:04;2.13;;;1.70;;
34212;SDS011;20477;51.390;8.102;2023-07-29T05:57:33;1.90;;;1.50;;
34212;SDS011;20477;51.390;8.102;2023-07-29T06:00:02;2.28;;;1.70;;
34212;SDS011;20477;51.390;8.102;2023-07-29T06:02:31;4.57;;;2.00;;
34212;SDS011;20477;51.390;8.102;2023-07-29T06:04:59;1.98;;;1.40;;
34212;SDS011;20477;51.390;8.102;2023-07-29T06:07:29;2.35;;;1.50;;
34212;SDS011;20477;51.390;8.102;2023-07-29T06:09:59;1.70;;;1.33;;
34212;SDS011;20477;51.390;8.102;2023-07-29T06:12:27;1.67;;;1.58;;
34212;SDS011;20477;51.390;8.102;2023-07-29T06:14:55;3.00;;;1.35;;
34212;SDS011;20477;51.390;8.102;2023-07-29T06:17:25;1.40;;;1.30;;
34212;SDS011;20477;51.390;8.102;2023-07-29T06:19:53;2.17;;;1.23;;
34212;SDS011;20477;51.390;8.102;2023-07-29T06:22:21;2.80;;;1.73;;
34212;SDS011;20477;51.390;8.102;2023-07-29T06:24:49;2.75;;;1.60;;
34212;SDS011;20477;51.390;8.102;2023-07-29T06:27:17;1.58;;;1.48;;
34212;SDS011;20477;51.390;8.102;2023-07-29T06:29:45;1.13;;;1.10;;
34212;SDS011;20477;51.390;8.102;2023-07-29T06:32:14;1.52;;;1.40;;
34212;SDS011;20477;51.390;8.102;2023-07-29T06:34:43;1.95;;;1.63;;
34212;SDS011;20477;51.390;8.102;2023-07-29T06:37:11;2.33;;;1.90;;
34212;SDS011;20477;51.390;8.102;2023-07-29T06:39:39;3.58;;;2.15;;
34212;SDS011;20477;51.390;8.102;2023-07-29T06:42:08;2.72;;;2.05;;
34212;SDS011;20477;51.390;8.102;2023-07-29T06:44:36;4.22;;;2.78;;
34212;SDS011;20477;51.390;8.102;2023-07-29T06:47:04;2.83;;;2.63;;
34212;SDS011;20477;51.390;8.102;2023-07-29T06:49:33;3.03;;;2.83;;
34212;SDS011;20477;51.390;8.102;2023-07-29T06:52:03;4.38;;;3.88;;
34212;SDS011;20477;51.390;8.102;2023-07-29T06:54:31;3.80;;;2.97;;
34212;SDS011;20477;51.390;8.102;2023-07-29T06:56:59;3.63;;;3.10;;
34212;SDS011;20477;51.390;8.102;2023-07-29T06:59:27;3.78;;;3.47;;
34212;SDS011;20477;51.390;8.102;2023-07-29T07:01:55;7.00;;;4.68;;
34212;SDS011;20477;51.390;8.102;2023-07-29T07:04:24;4.97;;;4.47;;
34212;SDS011;20477;51.390;8.102;2023-07-29T07:06:52;5.72;;;3.95;;
34212;SDS011;20477;51.390;8.102;2023-07-29T07:09:21;4.50;;;4.10;;
34212;SDS011;20477;51.390;8.102;2023-07-29T07:11:50;3.92;;;3.63;;
34212;SDS011;20477;51.390;8.102;2023-07-29T07:14:18;5.38;;;4.43;;
34212;SDS011;20477;51.390;8.102;2023-07-29T07:16:47;5.25;;;4.75;;
34212;SDS011;20477;51.390;8.102;2023-07-29T07:19:15;5.03;;;4.55;;
34212;SDS011;20477;51.390;8.102;2023-07-29T07:21:43;6.07;;;4.57;;
34212;SDS011;20477;51.390;8.102;2023-07-29T07:24:11;5.15;;;4.57;;
34212;SDS011;20477;51.390;8.102;2023-07-29T07:26:40;9.13;;;4.97;;
34212;SDS011;20477;51.390;8.102;2023-07-29T07:29:09;4.50;;;4.10;;
34212;SDS011;20477;51.390;8.102;2023-07-29T07:31:37;12.95;;;4.30;;
34212;SDS011;20477;51.390;8.102;2023-07-29T07:34:05;5.53;;;4.38;;
34212;SDS011;20477;51.390;8.102;2023-07-29T07:36:33;4.57;;;4.13;;
34212;SDS011;20477;51.390;8.102;2023-07-29T07:39:02;8.65;;;4.20;;
34212;SDS011;20477;51.390;8.102;2023-07-29T07:41:30;5.25;;;4.00;;
34212;SDS011;20477;51.390;8.102;2023-07-29T07:43:59;6.47;;;4.47;;
34212;SDS011;20477;51.390;8.102;2023-07-29T07:46:28;5.38;;;4.75;;
34212;SDS011;20477;51.390;8.102;2023-07-29T07:48:56;6.72;;;3.50;;
34212;SDS011;20477;51.390;8.102;2023-07-29T07:51:24;5.00;;;3.70;;
34212;SDS011;20477;51.390;8.102;2023-07-29T07:53:52;5.57;;;4.07;;
34212;SDS011;20477;51.390;8.102;2023-07-29T07:56:20;4.00;;;3.60;;
34212;SDS011;20477;51.390;8.102;2023-07-29T07:58:48;4.35;;;3.95;;
34212;SDS011;20477;51.390;8.102;2023-07-29T08:01:18;3.60;;;3.30;;
34212;SDS011;20477;51.390;8.102;2023-07-29T08:03:46;3.92;;;3.60;;
34212;SDS011;20477;51.390;8.102;2023-07-29T08:06:15;7.50;;;3.80;;
34212;SDS011;20477;51.390;8.102;2023-07-29T08:08:43;6.43;;;3.65;;
34212;SDS011;20477;51.390;8.102;2023-07-29T08:11:11;7.43;;;3.67;;
34212;SDS011;20477;51.390;8.102;2023-07-29T08:13:39;5.57;;;4.30;;
34212;SDS011;20477;51.390;8.102;2023-07-29T08:16:07;3.90;;;3.60;;
34212;SDS011;20477;51.390;8.102;2023-07-29T08:18:37;4.18;;;3.78;;
34212;SDS011;20477;51.390;8.102;2023-07-29T08:21:05;7.00;;;3.30;;
34212;SDS011;20477;51.390;8.102;2023-07-29T08:23:34;4.60;;;3.30;;
34212;SDS011;20477;51.390;8.102;2023-07-29T08:26:03;5.88;;;3.05;;
34212;SDS011;20477;51.390;8.102;2023-07-29T08:28:34;4.45;;;2.60;;
34212;SDS011;20477;51.390;8.102;2023-07-29T08:31:03;4.53;;;3.20;;
34212;SDS011;20477;51.390;8.102;2023-07-29T08:33:32;5.78;;;2.80;;
34212;SDS011;20477;51.390;8.102;2023-07-29T08:36:02;2.22;;;2.05;;
34212;SDS011;20477;51.390;8.102;2023-07-29T08:38:31;2.85;;;1.80;;
34212;SDS011;20477;51.390;8.102;2023-07-29T08:41:02;3.33;;;2.38;;
34212;SDS011;20477;51.390;8.102;2023-07-29T08:43:33;8.25;;;2.92;;
34212;SDS011;20477;51.390;8.102;2023-07-29T08:46:02;100.43;;;14.45;;
34212;SDS011;20477;51.390;8.102;2023-07-29T08:48:36;8.05;;;3.28;;
34212;SDS011;20477;51.390;8.102;2023-07-29T08:51:09;5.05;;;3.13;;
34212;SDS011;20477;51.390;8.102;2023-07-29T08:53:38;8.63;;;4.03;;
34212;SDS011;20477;51.390;8.102;2023-07-29T08:56:06;10.52;;;4.03;;
34212;SDS011;20477;51.390;8.102;2023-07-29T08:58:35;6.88;;;3.20;;
34212;SDS011;20477;51.390;8.102;2023-07-29T09:01:04;5.25;;;3.67;;
34212;SDS011;20477;51.390;8.102;2023-07-29T09:03:33;6.25;;;3.42;;
34212;SDS011;20477;51.390;8.102;2023-07-29T09:06:01;5.15;;;3.10;;
34212;SDS011;20477;51.390;8.102;2023-07-29T09:08:31;3.53;;;3.22;;
34212;SDS011;20477;51.390;8.102;2023-07-29T09:11:00;3.80;;;3.20;;
34212;SDS011;20477;51.390;8.102;2023-07-29T09:13:28;6.57;;;3.13;;
34212;SDS011;20477;51.390;8.102;2023-07-29T09:15:57;6.18;;;2.97;;
34212;SDS011;20477;51.390;8.102;2023-07-29T09:18:26;3.88;;;2.80;;
34212;SDS011;20477;51.390;8.102;2023-07-29T09:20:58;4.80;;;2.85;;
34212;SDS011;20477;51.390;8.102;2023-07-29T09:23:27;5.13;;;2.50;;
34212;SDS011;20477;51.390;8.102;2023-07-29T09:26:01;5.82;;;2.10;;
34212;SDS011;20477;51.390;8.102;2023-07-29T09:28:32;4.72;;;2.60;;
34212;SDS011;20477;51.390;8.102;2023-07-29T09:31:01;2.65;;;1.80;;
34212;SDS011;20477;51.390;8.102;2023-07-29T09:33:30;4.90;;;2.25;;
34212;SDS011;20477;51.390;8.102;2023-07-29T09:36:02;2.88;;;1.90;;
34212;SDS011;20477;51.390;8.102;2023-07-29T09:38:35;4.30;;;2.38;;
34212;SDS011;20477;51.390;8.102;2023-07-29T09:41:05;1.85;;;1.40;;
34212;SDS011;20477;51.390;8.102;2023-07-29T09:43:34;2.28;;;1.98;;
34212;SDS011;20477;51.390;8.102;2023-07-29T09:46:03;4.50;;;1.58;;
34212;SDS011;20477;51.390;8.102;2023-07-29T09:48:33;8.45;;;2.08;;
34212;SDS011;20477;51.390;8.102;2023-07-29T09:51:09;1.52;;;1.27;;
34212;SDS011;20477;51.390;8.102;2023-07-29T09:53:42;3.88;;;1.45;;
34212;SDS011;20477;51.390;8.102;2023-07-29T09:56:14;2.25;;;1.50;;
34212;SDS011;20477;51.390;8.102;2023-07-29T09:58:43;0.93;;;0.93;;
34212;SDS011;20477;51.390;8.102;2023-07-29T10:01:12;1.70;;;1.27;;
34212;SDS011;20477;51.390;8.102;2023-07-29T10:03:41;5.28;;;1.63;;
34212;SDS011;20477;51.390;8.102;2023-07-29T10:06:10;1.95;;;1.40;;
34212;SDS011;20477;51.390;8.102;2023-07-29T10:08:39;1.63;;;0.98;;
34212;SDS011;20477;51.390;8.102;2023-07-29T10:11:07;1.55;;;1.17;;
34212;SDS011;20477;51.390;8.102;2023-07-29T10:13:37;1.33;;;1.20;;
34212;SDS011;20477;51.390;8.102;2023-07-29T10:16:06;2.20;;;1.20;;
34212;SDS011;20477;51.390;8.102;2023-07-29T10:18:34;1.00;;;0.90;;
34212;SDS011;20477;51.390;8.102;2023-07-29T10:21:02;1.15;;;1.05;;
34212;SDS011;20477;51.390;8.102;2023-07-29T10:23:32;2.20;;;1.27;;
34212;SDS011;20477;51.390;8.102;2023-07-29T10:26:03;1.50;;;0.93;;
34212;SDS011;20477;51.390;8.102;2023-07-29T10:28:32;3.70;;;1.05;;
34212;SDS011;20477;51.390;8.102;2023-07-29T10:31:03;1.73;;;1.30;;
34212;SDS011;20477;51.390;8.102;2023-07-29T10:33:30;1.20;;;1.10;;
34212;SDS011;20477;51.390;8.102;2023-07-29T10:36:00;1.33;;;0.95;;
34212;SDS011;20477;51.390;8.102;2023-07-29T10:38:28;2.00;;;1.10;;
34212;SDS011;20477;51.390;8.102;2023-07-29T10:40:57;1.63;;;1.02;;
34212;SDS011;20477;51.390;8.102;2023-07-29T10:43:28;1.70;;;1.27;;
34212;SDS011;20477;51.390;8.102;2023-07-29T10:46:14;3.05;;;1.10;;
34212;SDS011;20477;51.390;8.102;2023-07-29T10:48:44;3.13;;;1.38;;
34212;SDS011;20477;51.390;8.102;2023-07-29T10:51:23;3.17;;;1.30;;
34212;SDS011;20477;51.390;8.102;2023-07-29T10:53:53;1.40;;;1.17;;
34212;SDS011;20477;51.390;8.102;2023-07-29T10:56:25;1.83;;;1.10;;
34212;SDS011;20477;51.390;8.102;2023-07-29T10:58:55;1.35;;;1.15;;
34212;SDS011;20477;51.390;8.102;2023-07-29T11:01:29;2.42;;;0.98;;
34212;SDS011;20477;51.390;8.102;2023-07-29T11:09:57;1.48;;;0.93;;
34212;SDS011;20477;51.390;8.102;2023-07-29T11:12:41;3.88;;;1.10;;
34212;SDS011;20477;51.390;8.102;2023-07-29T11:15:16;4.03;;;1.30;;
34212;SDS011;20477;51.390;8.102;2023-07-29T11:17:48;1.67;;;1.20;;
34212;SDS011;20477;51.390;8.102;2023-07-29T11:20:18;1.60;;;1.15;;
34212;SDS011;20477;51.390;8.102;2023-07-29T11:22:47;1.98;;;1.23;;
34212;SDS011;20477;51.390;8.102;2023-07-29T11:25:15;3.03;;;1.25;;
34212;SDS011;20477;51.390;8.102;2023-07-29T11:27:45;6.07;;;1.40;;
34212;SDS011;20477;51.390;8.102;2023-07-29T11:30:14;2.15;;;0.95;;
34212;SDS011;20477;51.390;8.102;2023-07-29T11:32:43;2.15;;;1.20;;
34212;SDS011;20477;51.390;8.102;2023-07-29T11:35:14;1.25;;;1.15;;
34212;SDS011;20477;51.390;8.102;2023-07-29T11:37:44;1.23;;;1.13;;
34212;SDS011;20477;51.390;8.102;2023-07-29T11:40:14;5.13;;;1.20;;
34212;SDS011;20477;51.390;8.102;2023-07-29T11:42:43;2.65;;;1.42;;
34212;SDS011;20477;51.390;8.102;2023-07-29T11:45:12;1.17;;;1.08;;
34212;SDS011;20477;51.390;8.102;2023-07-29T11:47:43;1.67;;;1.33;;
34212;SDS011;20477;51.390;8.102;2023-07-29T11:50:14;2.30;;;1.10;;
34212;SDS011;20477;51.390;8.102;2023-07-29T11:52:43;1.50;;;1.40;;
34212;SDS011;20477;51.390;8.102;2023-07-29T11:55:13;2.65;;;1.40;;
34212;SDS011;20477;51.390;8.102;2023-07-29T11:57:42;1.35;;;1.15;;
34212;SDS011;20477;51.390;8.102;2023-07-29T12:00:11;2.13;;;1.33;;
34212;SDS011;20477;51.390;8.102;2023-07-29T12:02:42;1.42;;;1.25;;
34212;SDS011;20477;51.390;8.102;2023-07-29T12:05:12;1.00;;;0.90;;
34212;SDS011;20477;51.390;8.102;2023-07-29T12:07:45;3.75;;;1.40;;
34212;SDS011;20477;51.390;8.102;2023-07-29T12:10:13;3.30;;;1.20;;
34212;SDS011;20477;51.390;8.102;2023-07-29T12:12:45;4.13;;;1.27;;
34212;SDS011;20477;51.390;8.102;2023-07-29T12:15:13;1.35;;;1.23;;
34212;SDS011;20477;51.390;8.102;2023-07-29T12:17:52;3.35;;;1.23;;
34212;SDS011;20477;51.390;8.102;2023-07-29T12:20:24;1.10;;;1.00;;
34212;SDS011;20477;51.390;8.102;2023-07-29T12:22:54;4.57;;;1.10;;
34212;SDS011;20477;51.390;8.102;2023-07-29T12:25:22;2.13;;;1.48;;
34212;SDS011;20477;51.390;8.102;2023-07-29T12:27:51;1.65;;;1.30;;
34212;SDS011;20477;51.390;8.102;2023-07-29T12:30:20;3.83;;;1.52;;
34212;SDS011;20477;51.390;8.102;2023-07-29T12:32:49;2.17;;;1.17;;
34212;SDS011;20477;51.390;8.102;2023-07-29T12:35:18;2.40;;;1.45;;
34212;SDS011;20477;51.390;8.102;2023-07-29T12:37:48;2.63;;;1.58;;
34212;SDS011;20477;51.390;8.102;2023-07-29T12:40:26;1.55;;;1.25;;
34212;SDS011;20477;51.390;8.102;2023-07-29T12:42:55;3.10;;;1.95;;
34212;SDS011;20477;51.390;8.102;2023-07-29T12:45:24;4.75;;;1.77;;
34212;SDS011;20477;51.390;8.102;2023-07-29T12:47:55;2.22;;;1.40;;
34212;SDS011;20477;51.390;8.102;2023-07-29T12:50:24;1.95;;;1.42;;
34212;SDS011;20477;51.390;8.102;2023-07-29T12:52:54;1.67;;;1.45;;
34212;SDS011;20477;51.390;8.102;2023-07-29T12:55:22;2.40;;;1.67;;
34212;SDS011;20477;51.390;8.102;2023-07-29T12:57:51;2.20;;;1.38;;
34212;SDS011;20477;51.390;8.102;2023-07-29T13:00:19;3.72;;;1.35;;
34212;SDS011;20477;51.390;8.102;2023-07-29T13:02:47;1.92;;;1.20;;
34212;SDS011;20477;51.390;8.102;2023-07-29T13:05:16;2.70;;;1.60;;
34212;SDS011;20477;51.390;8.102;2023-07-29T13:07:44;2.05;;;1.30;;
34212;SDS011;20477;51.390;8.102;2023-07-29T13:10:14;2.25;;;1.70;;
34212;SDS011;20477;51.390;8.102;2023-07-29T13:12:43;1.67;;;1.58;;
34212;SDS011;20477;51.390;8.102;2023-07-29T13:15:11;3.67;;;1.50;;
34212;SDS011;20477;51.390;8.102;2023-07-29T13:17:39;5.63;;;1.73;;
34212;SDS011;20477;51.390;8.102;2023-07-29T13:20:08;1.48;;;1.15;;
34212;SDS011;20477;51.390;8.102;2023-07-29T13:22:36;1.65;;;1.48;;
34212;SDS011;20477;51.390;8.102;2023-07-29T13:25:05;1.38;;;1.20;;
34212;SDS011;20477;51.390;8.102;2023-07-29T13:27:35;3.83;;;1.40;;
34212;SDS011;20477;51.390;8.102;2023-07-29T13:30:04;2.55;;;1.20;;
34212;SDS011;20477;51.390;8.102;2023-07-29T13:32:33;4.28;;;1.30;;
34212;SDS011;20477;51.390;8.102;2023-07-29T13:35:03;3.08;;;1.73;;
34212;SDS011;20477;51.390;8.102;2023-07-29T13:37:33;3.28;;;1.63;;
34212;SDS011;20477;51.390;8.102;2023-07-29T13:40:03;3.05;;;1.33;;
34212;SDS011;20477;51.390;8.102;2023-07-29T13:42:33;1.85;;;1.50;;
34212;SDS011;20477;51.390;8.102;2023-07-29T13:45:04;3.63;;;1.65;;
34212;SDS011;20477;51.390;8.102;2023-07-29T13:47:34;18.77;;;1.80;;
34212;SDS011;20477;51.390;8.102;2023-07-29T13:50:05;1.92;;;1.63;;
34212;SDS011;20477;51.390;8.102;2023-07-29T13:52:35;1.50;;;1.33;;
34212;SDS011;20477;51.390;8.102;2023-07-29T13:55:05;1.88;;;1.65;;
34212;SDS011;20477;51.390;8.102;2023-07-29T13:57:37;2.13;;;1.48;;
34212;SDS011;20477;51.390;8.102;2023-07-29T14:00:07;1.92;;;1.38;;
34212;SDS011;20477;51.390;8.102;2023-07-29T14:02:36;3.85;;;1.50;;
34212;SDS011;20477;51.390;8.102;2023-07-29T14:05:04;1.90;;;1.35;;
34212;SDS011;20477;51.390;8.102;2023-07-29T14:07:33;4.55;;;1.85;;
34212;SDS011;20477;51.390;8.102;2023-07-29T14:10:01;2.80;;;1.75;;
34212;SDS011;20477;51.390;8.102;2023-07-29T14:12:30;7.93;;;2.13;;
34212;SDS011;20477;51.390;8.102;2023-07-29T14:14:59;1.90;;;1.50;;
34212;SDS011;20477;51.390;8.102;2023-07-29T14:17:27;2.28;;;1.48;;
34212;SDS011;20477;51.390;8.102;2023-07-29T14:19:55;6.50;;;2.10;;
34212;SDS011;20477;51.390;8.102;2023-07-29T14:22:23;2.17;;;1.25;;
34212;SDS011;20477;51.390;8.102;2023-07-29T14:24:51;2.63;;;1.80;;
34212;SDS011;20477;51.390;8.102;2023-07-29T14:27:20;4.85;;;2.00;;
34212;SDS011;20477;51.390;8.102;2023-07-29T14:29:49;1.52;;;1.42;;
34212;SDS011;20477;51.390;8.102;2023-07-29T14:32:20;2.28;;;1.65;;
34212;SDS011;20477;51.390;8.102;2023-07-29T14:34:50;2.35;;;1.48;;
34212;SDS011;20477;51.390;8.102;2023-07-29T14:37:19;2.47;;;1.75;;
34212;SDS011;20477;51.390;8.102;2023-07-29T14:39:48;2.80;;;1.73;;
34212;SDS011;20477;51.390;8.102;2023-07-29T14:42:18;6.78;;;1.88;;
34212;SDS011;20477;51.390;8.102;2023-07-29T14:44:47;2.22;;;2.03;;
34212;SDS011;20477;51.390;8.102;2023-07-29T14:47:16;3.40;;;1.52;;
34212;SDS011;20477;51.390;8.102;2023-07-29T14:49:47;3.95;;;1.88;;
34212;SDS011;20477;51.390;8.102;2023-07-29T14:52:17;4.65;;;2.38;;
34212;SDS011;20477;51.390;8.102;2023-07-29T14:54:46;3.10;;;2.05;;
34212;SDS011;20477;51.390;8.102;2023-07-29T14:57:16;2.53;;;1.98;;
34212;SDS011;20477;51.390;8.102;2023-07-29T14:59:46;4.88;;;1.98;;
34212;SDS011;20477;51.390;8.102;2023-07-29T15:02:15;5.20;;;2.53;;
34212;SDS011;20477;51.390;8.102;2023-07-29T15:04:45;8.45;;;1.92;;
34212;SDS011;20477;51.390;8.102;2023-07-29T15:07:18;2.55;;;2.05;;